createdAt,value
2023-05-06T00:00:05.186Z,1020.79
2023-05-06T00:00:14.591Z,1020.77
2023-05-06T00:00:23.976Z,1020.71
2023-05-06T00:00:43.046Z,1020.73
2023-05-06T00:00:52.429Z,1020.82
2023-05-06T00:01:02.408Z,1020.68
2023-05-06T00:01:11.804Z,1020.75
2023-05-06T00:01:21.232Z,1020.73
2023-05-06T00:01:30.613Z,1020.74
2023-05-06T00:01:49.437Z,1020.71
2023-05-06T00:01:58.847Z,1020.71
2023-05-06T00:02:08.311Z,1020.59
2023-05-06T00:02:17.753Z,1020.72
2023-05-06T00:02:27.224Z,1020.97
2023-05-06T00:02:36.671Z,1020.90
2023-05-06T00:02:55.689Z,1020.75
2023-05-06T00:03:05.221Z,1020.76
2023-05-06T00:03:14.541Z,1020.67
2023-05-06T00:03:24.142Z,1020.86
2023-05-06T00:03:33.461Z,1020.88
2023-05-06T00:03:42.820Z,1020.75
2023-05-06T00:04:01.797Z,1020.88
2023-05-06T00:04:10.991Z,1020.82
2023-05-06T00:04:20.391Z,1020.81
2023-05-06T00:04:29.822Z,1020.62
2023-05-06T00:04:39.215Z,1020.81
2023-05-06T00:04:48.671Z,1020.75
2023-05-06T00:05:07.584Z,1020.74
2023-05-06T00:05:16.762Z,1020.73
2023-05-06T00:05:26.177Z,1020.83
2023-05-06T00:05:35.828Z,1020.74
2023-05-06T00:05:45.232Z,1020.72
2023-05-06T00:05:54.673Z,1020.67
2023-05-06T00:06:13.446Z,1020.83
2023-05-06T00:06:22.842Z,1020.84
2023-05-06T00:06:32.247Z,1020.77
2023-05-06T00:06:41.641Z,1020.72
2023-05-06T00:06:51.042Z,1020.70
2023-05-06T00:07:00.422Z,1020.75
2023-05-06T00:07:19.242Z,1020.73
2023-05-06T00:07:28.609Z,1020.79
2023-05-06T00:07:38.032Z,1020.61
2023-05-06T00:07:47.408Z,1020.77
2023-05-06T00:07:56.790Z,1020.75
2023-05-06T00:08:06.195Z,1020.67
2023-05-06T00:08:24.994Z,1020.79
2023-05-06T00:08:34.372Z,1020.71
2023-05-06T00:08:43.748Z,1020.71
2023-05-06T00:08:53.127Z,1020.64
2023-05-06T00:09:02.629Z,1020.69
2023-05-06T00:09:11.885Z,1020.70
2023-05-06T00:09:30.689Z,1020.74
2023-05-06T00:09:40.090Z,1020.61
2023-05-06T00:09:49.486Z,1020.77
2023-05-06T00:09:58.874Z,1020.75
2023-05-06T00:10:08.273Z,1020.78
2023-05-06T00:10:17.674Z,1020.79
2023-05-06T00:10:36.446Z,1020.75
2023-05-06T00:10:45.847Z,1020.76
2023-05-06T00:10:55.242Z,1020.75
2023-05-06T00:11:04.628Z,1020.79
2023-05-06T00:11:13.999Z,1020.84
2023-05-06T00:11:23.385Z,1020.70
2023-05-06T00:11:42.168Z,1020.65
2023-05-06T00:11:51.595Z,1020.79
2023-05-06T00:12:00.975Z,1021.03
2023-05-06T00:12:10.376Z,1020.86
2023-05-06T00:12:19.757Z,1020.67
2023-05-06T00:12:29.132Z,1020.71
2023-05-06T00:12:48.011Z,1020.62
2023-05-06T00:12:57.396Z,1020.61
2023-05-06T00:13:06.785Z,1020.73
2023-05-06T00:13:16.205Z,1020.74
2023-05-06T00:13:25.516Z,1020.66
2023-05-06T00:13:34.879Z,1020.69
2023-05-06T00:13:53.656Z,1020.64
2023-05-06T00:14:03.042Z,1020.73
2023-05-06T00:14:12.450Z,1020.62
2023-05-06T00:14:21.819Z,1020.70
2023-05-06T00:14:31.240Z,1020.83
2023-05-06T00:14:40.609Z,1020.72
2023-05-06T00:14:59.403Z,1020.86
2023-05-06T00:15:08.949Z,1020.81
2023-05-06T00:15:18.167Z,1020.69
2023-05-06T00:15:28.674Z,1020.68
2023-05-06T00:15:36.934Z,1020.78
2023-05-06T00:15:46.329Z,1020.72
2023-05-06T00:16:05.140Z,1020.65
2023-05-06T00:16:14.558Z,1020.65
2023-05-06T00:16:23.968Z,1020.60
2023-05-06T00:16:33.370Z,1020.70
2023-05-06T00:16:42.827Z,1020.83
2023-05-06T00:16:52.118Z,1020.75
2023-05-06T00:17:10.905Z,1020.68
2023-05-06T00:17:20.305Z,1020.77
2023-05-06T00:17:29.710Z,1020.68
2023-05-06T00:17:39.085Z,1020.61
2023-05-06T00:17:48.466Z,1020.62
2023-05-06T00:17:58.078Z,1020.71
2023-05-06T00:18:16.792Z,1020.66
2023-05-06T00:18:26.170Z,1020.62
2023-05-06T00:18:35.561Z,1020.64
2023-05-06T00:18:44.957Z,1020.79
2023-05-06T00:18:54.345Z,1020.69
2023-05-06T00:19:03.731Z,1020.71
2023-05-06T00:19:22.521Z,1020.69
2023-05-06T00:19:31.903Z,1020.65
2023-05-06T00:19:41.312Z,1020.62
2023-05-06T00:19:50.689Z,1020.68
2023-05-06T00:20:00.122Z,1020.68
2023-05-06T00:20:09.499Z,1020.64
2023-05-06T00:20:28.254Z,1020.72
2023-05-06T00:20:37.642Z,1020.53
2023-05-06T00:20:47.034Z,1020.63
2023-05-06T00:20:56.501Z,1020.51
2023-05-06T00:21:05.810Z,1020.58
2023-05-06T00:21:15.186Z,1020.48
2023-05-06T00:21:33.976Z,1020.60
2023-05-06T00:21:43.383Z,1020.60
2023-05-06T00:21:52.775Z,1020.61
2023-05-06T00:22:02.154Z,1020.89
2023-05-06T00:22:11.554Z,1020.84
2023-05-06T00:22:20.953Z,1020.69
2023-05-06T00:22:39.714Z,1020.64
2023-05-06T00:22:49.097Z,1020.73
2023-05-06T00:22:58.483Z,1020.99
2023-05-06T00:23:07.959Z,1020.75
2023-05-06T00:23:17.408Z,1020.77
2023-05-06T00:23:26.797Z,1020.62
2023-05-06T00:23:45.617Z,1020.66
2023-05-06T00:23:55.003Z,1020.52
2023-05-06T00:24:04.499Z,1020.74
2023-05-06T00:24:13.797Z,1020.81
2023-05-06T00:24:23.185Z,1020.63
2023-05-06T00:24:32.557Z,1020.41
2023-05-06T00:24:51.375Z,1020.55
2023-05-06T00:25:00.838Z,1020.63
2023-05-06T00:25:10.394Z,1020.73
2023-05-06T00:25:19.587Z,1020.58
2023-05-06T00:25:28.968Z,1020.61
2023-05-06T00:25:38.364Z,1020.58
2023-05-06T00:25:57.166Z,1020.53
2023-05-06T00:26:06.577Z,1020.67
2023-05-06T00:26:15.956Z,1020.48
2023-05-06T00:26:25.341Z,1020.62
2023-05-06T00:26:34.730Z,1020.48
2023-05-06T00:26:44.129Z,1020.42
2023-05-06T00:27:02.919Z,1020.58
2023-05-06T00:27:12.301Z,1020.54
2023-05-06T00:27:21.697Z,1020.52
2023-05-06T00:27:31.085Z,1020.56
2023-05-06T00:27:40.465Z,1020.43
2023-05-06T00:27:49.868Z,1020.56
2023-05-06T00:28:08.645Z,1020.56
2023-05-06T00:28:18.042Z,1020.52
2023-05-06T00:28:27.459Z,1020.49
2023-05-06T00:28:36.858Z,1020.57
2023-05-06T00:28:46.238Z,1020.68
2023-05-06T00:28:55.635Z,1020.52
2023-05-06T00:29:14.426Z,1020.50
2023-05-06T00:29:23.810Z,1020.49
2023-05-06T00:29:33.200Z,1020.51
2023-05-06T00:29:42.618Z,1020.56
2023-05-06T00:29:52.005Z,1020.48
2023-05-06T00:30:01.495Z,1020.52
2023-05-06T00:30:20.273Z,1020.44
2023-05-06T00:30:29.665Z,1020.52
2023-05-06T00:30:39.062Z,1020.59
2023-05-06T00:30:48.503Z,1020.44
2023-05-06T00:30:57.920Z,1020.48
2023-05-06T00:31:07.360Z,1020.52
2023-05-06T00:31:26.150Z,1020.48
2023-05-06T00:31:35.527Z,1020.56
2023-05-06T00:31:44.926Z,1020.50
2023-05-06T00:31:54.335Z,1020.71
2023-05-06T00:32:03.712Z,1020.51
2023-05-06T00:32:13.207Z,1020.54
2023-05-06T00:32:31.823Z,1020.60
2023-05-06T00:32:41.249Z,1020.60
2023-05-06T00:32:50.672Z,1020.59
2023-05-06T00:33:00.085Z,1020.52
2023-05-06T00:33:09.464Z,1020.62
2023-05-06T00:33:18.789Z,1020.53
2023-05-06T00:33:37.565Z,1020.66
2023-05-06T00:33:46.930Z,1020.50
2023-05-06T00:33:56.328Z,1020.49
2023-05-06T00:34:05.779Z,1020.43
2023-05-06T00:34:15.176Z,1020.51
2023-05-06T00:34:24.589Z,1020.45
2023-05-06T00:34:43.378Z,1020.52
2023-05-06T00:34:52.805Z,1020.54
2023-05-06T00:35:02.172Z,1020.50
2023-05-06T00:35:11.672Z,1020.50
2023-05-06T00:35:20.981Z,1020.59
2023-05-06T00:35:30.347Z,1020.46
2023-05-06T00:35:49.159Z,1020.50
2023-05-06T00:35:58.604Z,1020.53
2023-05-06T00:36:07.992Z,1020.50
2023-05-06T00:36:17.388Z,1020.51
2023-05-06T00:36:26.818Z,1020.42
2023-05-06T00:36:36.222Z,1020.60
2023-05-06T00:36:55.009Z,1020.66
2023-05-06T00:37:04.413Z,1020.79
2023-05-06T00:37:13.792Z,1020.59
2023-05-06T00:37:23.195Z,1020.53
2023-05-06T00:37:32.579Z,1020.59
2023-05-06T00:37:41.961Z,1020.61
2023-05-06T00:38:00.761Z,1020.70
2023-05-06T00:38:10.142Z,1020.64
2023-05-06T00:38:19.535Z,1020.44
2023-05-06T00:38:28.880Z,1020.60
2023-05-06T00:38:38.272Z,1020.56
2023-05-06T00:38:47.637Z,1020.55
2023-05-06T00:39:06.714Z,1020.62
2023-05-06T00:39:15.839Z,1020.55
2023-05-06T00:39:25.227Z,1020.59
2023-05-06T00:39:34.637Z,1020.65
2023-05-06T00:39:44.034Z,1020.64
2023-05-06T00:39:53.437Z,1020.61
2023-05-06T00:40:12.235Z,1020.63
2023-05-06T00:40:21.691Z,1020.71
2023-05-06T00:40:31.083Z,1020.62
2023-05-06T00:40:40.516Z,1020.49
2023-05-06T00:40:49.902Z,1020.43
2023-05-06T00:40:59.325Z,1020.49
2023-05-06T00:41:18.135Z,1020.67
2023-05-06T00:41:27.525Z,1020.49
2023-05-06T00:41:36.925Z,1020.54
2023-05-06T00:41:46.324Z,1020.79
2023-05-06T00:41:55.698Z,1020.50
2023-05-06T00:42:05.092Z,1020.52
2023-05-06T00:42:23.888Z,1020.66
2023-05-06T00:42:33.289Z,1020.56
2023-05-06T00:42:42.683Z,1020.64
2023-05-06T00:42:52.071Z,1020.48
2023-05-06T00:43:01.501Z,1020.57
2023-05-06T00:43:10.900Z,1020.64
2023-05-06T00:43:29.690Z,1020.54
2023-05-06T00:43:39.059Z,1020.67
2023-05-06T00:43:48.432Z,1020.52
2023-05-06T00:43:57.818Z,1020.58
2023-05-06T00:44:07.200Z,1020.57
2023-05-06T00:44:16.582Z,1020.58
2023-05-06T00:44:35.486Z,1020.56
2023-05-06T00:44:44.880Z,1020.44
2023-05-06T00:44:54.279Z,1020.55
2023-05-06T00:45:03.708Z,1020.53
2023-05-06T00:45:13.117Z,1020.58
2023-05-06T00:45:22.505Z,1020.52
2023-05-06T00:45:41.325Z,1020.51
2023-05-06T00:45:50.702Z,1020.48
2023-05-06T00:46:00.140Z,1020.58
2023-05-06T00:46:09.521Z,1020.59
2023-05-06T00:46:18.991Z,1020.36
2023-05-06T00:46:28.371Z,1020.56
2023-05-06T00:46:47.123Z,1020.51
2023-05-06T00:46:56.549Z,1020.48
2023-05-06T00:47:05.911Z,1020.72
2023-05-06T00:47:15.291Z,1020.52
2023-05-06T00:47:24.675Z,1020.53
2023-05-06T00:47:34.074Z,1020.42
2023-05-06T00:47:52.927Z,1020.57
2023-05-06T00:48:02.299Z,1020.59
2023-05-06T00:48:11.723Z,1020.42
2023-05-06T00:48:21.039Z,1020.41
2023-05-06T00:48:30.425Z,1020.53
2023-05-06T00:48:39.802Z,1020.38
2023-05-06T00:48:58.605Z,1020.45
2023-05-06T00:49:07.977Z,1020.37
2023-05-06T00:49:17.400Z,1020.41
2023-05-06T00:49:26.790Z,1020.39
2023-05-06T00:49:36.191Z,1020.43
2023-05-06T00:49:45.562Z,1020.31
2023-05-06T00:50:04.349Z,1020.38
2023-05-06T00:50:13.735Z,1020.46
2023-05-06T00:50:23.142Z,1020.38
2023-05-06T00:50:32.560Z,1020.38
2023-05-06T00:50:41.922Z,1020.40
2023-05-06T00:50:51.322Z,1020.39
2023-05-06T00:51:10.215Z,1020.44
2023-05-06T00:51:19.642Z,1020.45
2023-05-06T00:51:29.047Z,1020.58
2023-05-06T00:51:38.456Z,1020.47
2023-05-06T00:51:47.836Z,1020.30
2023-05-06T00:51:57.233Z,1020.37
2023-05-06T00:52:16.038Z,1020.46
2023-05-06T00:52:25.422Z,1020.55
2023-05-06T00:52:34.805Z,1020.58
2023-05-06T00:52:44.182Z,1020.41
2023-05-06T00:52:53.560Z,1020.43
2023-05-06T00:53:02.942Z,1020.58
2023-05-06T00:53:21.741Z,1020.39
2023-05-06T00:53:31.114Z,1020.34
2023-05-06T00:53:40.504Z,1020.38
2023-05-06T00:53:49.898Z,1020.43
2023-05-06T00:53:59.297Z,1020.48
2023-05-06T00:54:08.893Z,1020.47
2023-05-06T00:54:27.494Z,1020.46
2023-05-06T00:54:36.896Z,1020.44
2023-05-06T00:54:46.295Z,1020.44
2023-05-06T00:54:55.709Z,1020.45
2023-05-06T00:55:05.098Z,1020.48
2023-05-06T00:55:14.479Z,1020.38
2023-05-06T00:55:33.251Z,1020.45
2023-05-06T00:55:42.626Z,1020.24
2023-05-06T00:55:51.997Z,1020.60
2023-05-06T00:56:01.632Z,1020.65
2023-05-06T00:56:11.014Z,1020.42
2023-05-06T00:56:20.893Z,1020.48
2023-05-06T00:56:39.159Z,1020.36
2023-05-06T00:56:48.548Z,1020.38
2023-05-06T00:56:57.922Z,1020.58
2023-05-06T00:57:07.297Z,1020.45
2023-05-06T00:57:16.699Z,1020.41
2023-05-06T00:57:26.148Z,1020.44
2023-05-06T00:57:44.913Z,1020.46
2023-05-06T00:57:54.298Z,1020.46
2023-05-06T00:58:03.694Z,1020.49
2023-05-06T00:58:13.088Z,1020.45
2023-05-06T00:58:22.491Z,1020.43
2023-05-06T00:58:31.885Z,1020.60
2023-05-06T00:58:50.680Z,1020.42
2023-05-06T00:59:00.085Z,1020.49
2023-05-06T00:59:09.431Z,1020.46
2023-05-06T00:59:18.810Z,1020.38
2023-05-06T00:59:28.199Z,1020.35
2023-05-06T00:59:37.630Z,1020.55
2023-05-06T00:59:56.405Z,1020.36
2023-05-06T01:00:05.790Z,1020.39
2023-05-06T01:00:15.179Z,1020.32
2023-05-06T01:00:24.562Z,1020.46
2023-05-06T01:00:33.950Z,1020.41
2023-05-06T01:00:43.346Z,1020.32
2023-05-06T01:01:02.339Z,1020.35
2023-05-06T01:01:11.605Z,1020.43
2023-05-06T01:01:20.989Z,1020.37
2023-05-06T01:01:30.326Z,1020.50
2023-05-06T01:01:39.795Z,1020.37
2023-05-06T01:01:49.105Z,1020.46
2023-05-06T01:02:07.913Z,1020.59
2023-05-06T01:02:17.308Z,1020.41
2023-05-06T01:02:36.267Z,1020.43
2023-05-06T01:02:46.362Z,1020.51
2023-05-06T01:02:47.791Z,1020.38
2023-05-06T01:02:54.911Z,1020.36
2023-05-06T01:03:13.767Z,1020.29
2023-05-06T01:03:23.215Z,1020.30
2023-05-06T01:03:32.514Z,1020.29
2023-05-06T01:03:42.079Z,1020.30
2023-05-06T01:03:51.358Z,1020.31
2023-05-06T01:04:00.852Z,1020.34
2023-05-06T01:04:19.529Z,1020.32
2023-05-06T01:04:28.953Z,1020.23
2023-05-06T01:04:38.364Z,1020.26
2023-05-06T01:04:47.834Z,1020.20
2023-05-06T01:04:57.223Z,1020.24
2023-05-06T01:05:06.774Z,1020.32
2023-05-06T01:05:25.472Z,1020.39
2023-05-06T01:05:34.828Z,1020.32
2023-05-06T01:05:44.213Z,1020.22
2023-05-06T01:05:53.607Z,1020.24
2023-05-06T01:06:03.014Z,1020.38
2023-05-06T01:06:12.428Z,1020.34
2023-05-06T01:06:31.229Z,1020.26
2023-05-06T01:06:40.631Z,1020.33
2023-05-06T01:06:50.077Z,1020.45
2023-05-06T01:06:59.491Z,1020.38
2023-05-06T01:07:08.892Z,1020.38
2023-05-06T01:07:18.293Z,1020.37
2023-05-06T01:07:37.149Z,1020.32
2023-05-06T01:07:46.587Z,1020.28
2023-05-06T01:07:55.973Z,1020.32
2023-05-06T01:08:05.348Z,1020.31
2023-05-06T01:08:14.732Z,1020.26
2023-05-06T01:08:24.138Z,1020.39
2023-05-06T01:08:42.936Z,1020.27
2023-05-06T01:08:52.346Z,1020.36
2023-05-06T01:09:01.781Z,1020.53
2023-05-06T01:09:11.333Z,1020.35
2023-05-06T01:09:20.556Z,1020.25
2023-05-06T01:09:29.944Z,1020.42
2023-05-06T01:09:48.764Z,1020.31
2023-05-06T01:09:58.166Z,1020.29
2023-05-06T01:10:07.587Z,1020.15
2023-05-06T01:10:16.992Z,1020.27
2023-05-06T01:10:26.380Z,1020.29
2023-05-06T01:10:35.778Z,1020.28
2023-05-06T01:10:54.584Z,1020.36
2023-05-06T01:11:04.006Z,1020.29
2023-05-06T01:11:15.692Z,1020.28
2023-05-06T01:11:22.925Z,1020.25
2023-05-06T01:11:32.347Z,1020.29
2023-05-06T01:11:41.741Z,1020.36
2023-05-06T01:12:00.570Z,1020.36
2023-05-06T01:12:09.956Z,1020.37
2023-05-06T01:12:19.363Z,1020.28
2023-05-06T01:12:28.783Z,1020.29
2023-05-06T01:12:38.213Z,1020.25
2023-05-06T01:12:47.619Z,1020.35
2023-05-06T01:13:06.361Z,1020.30
2023-05-06T01:13:15.884Z,1020.31
2023-05-06T01:13:25.169Z,1020.38
2023-05-06T01:13:34.567Z,1020.31
2023-05-06T01:13:43.956Z,1020.27
2023-05-06T01:13:53.352Z,1020.47
2023-05-06T01:14:12.162Z,1020.52
2023-05-06T01:14:21.568Z,1020.50
2023-05-06T01:14:30.963Z,1020.39
2023-05-06T01:14:40.340Z,1020.41
2023-05-06T01:14:49.741Z,1020.30
2023-05-06T01:14:59.150Z,1020.25
2023-05-06T01:15:17.967Z,1020.34
2023-05-06T01:15:27.409Z,1020.42
2023-05-06T01:15:36.863Z,1020.46
2023-05-06T01:15:46.255Z,1020.28
2023-05-06T01:15:55.673Z,1020.51
2023-05-06T01:16:05.098Z,1020.35
2023-05-06T01:16:23.944Z,1020.52
2023-05-06T01:16:33.374Z,1020.37
2023-05-06T01:16:42.756Z,1020.38
2023-05-06T01:16:52.199Z,1020.35
2023-05-06T01:17:01.678Z,1020.31
2023-05-06T01:17:11.029Z,1020.33
2023-05-06T01:17:29.792Z,1020.42
2023-05-06T01:17:39.186Z,1020.44
2023-05-06T01:17:48.624Z,1020.38
2023-05-06T01:17:58.001Z,1020.49
2023-05-06T01:18:07.462Z,1020.45
2023-05-06T01:18:16.787Z,1020.43
2023-05-06T01:18:35.598Z,1020.48
2023-05-06T01:18:44.978Z,1020.23
2023-05-06T01:18:54.362Z,1020.28
2023-05-06T01:19:03.823Z,1020.43
2023-05-06T01:19:13.223Z,1020.50
2023-05-06T01:19:22.626Z,1020.47
2023-05-06T01:19:41.449Z,1020.55
2023-05-06T01:19:50.854Z,1020.33
2023-05-06T01:20:00.266Z,1020.27
2023-05-06T01:20:09.634Z,1020.46
2023-05-06T01:20:19.050Z,1020.34
2023-05-06T01:20:28.470Z,1020.26
2023-05-06T01:20:47.274Z,1020.44
2023-05-06T01:20:56.681Z,1020.39
2023-05-06T01:21:06.157Z,1020.21
2023-05-06T01:21:15.538Z,1020.26
2023-05-06T01:21:24.978Z,1020.29
2023-05-06T01:21:34.383Z,1020.30
2023-05-06T01:21:53.188Z,1020.41
2023-05-06T01:22:02.596Z,1020.38
2023-05-06T01:22:12.015Z,1020.33
2023-05-06T01:22:21.438Z,1020.36
2023-05-06T01:22:30.857Z,1020.28
2023-05-06T01:22:40.271Z,1020.34
2023-05-06T01:22:59.059Z,1020.33
2023-05-06T01:23:08.455Z,1020.31
2023-05-06T01:23:17.856Z,1020.26
2023-05-06T01:23:27.280Z,1020.34
2023-05-06T01:23:36.662Z,1020.25
2023-05-06T01:23:46.071Z,1020.28
2023-05-06T01:24:04.864Z,1020.24
2023-05-06T01:24:14.363Z,1020.30
2023-05-06T01:24:23.650Z,1020.39
2023-05-06T01:24:33.125Z,1020.33
2023-05-06T01:24:42.625Z,1020.19
2023-05-06T01:24:52.062Z,1020.33
2023-05-06T01:25:11.019Z,1020.22
2023-05-06T01:25:20.303Z,1020.29
2023-05-06T01:25:29.674Z,1020.32
2023-05-06T01:25:39.055Z,1020.29
2023-05-06T01:25:48.478Z,1020.26
2023-05-06T01:25:57.904Z,1020.27
2023-05-06T01:26:16.733Z,1020.20
2023-05-06T01:26:26.151Z,1020.28
2023-05-06T01:26:35.577Z,1020.23
2023-05-06T01:26:45.006Z,1020.14
2023-05-06T01:26:54.396Z,1020.22
2023-05-06T01:27:03.800Z,1020.23
2023-05-06T01:27:22.602Z,1020.19
2023-05-06T01:27:31.983Z,1020.27
2023-05-06T01:27:41.401Z,1020.21
2023-05-06T01:27:50.792Z,1020.19
2023-05-06T01:28:00.195Z,1020.25
2023-05-06T01:28:09.590Z,1020.25
2023-05-06T01:28:28.438Z,1020.19
2023-05-06T01:28:37.844Z,1020.26
2023-05-06T01:28:47.253Z,1020.36
2023-05-06T01:28:56.652Z,1020.19
2023-05-06T01:29:06.053Z,1020.27
2023-05-06T01:29:15.441Z,1020.31
2023-05-06T01:29:34.237Z,1020.21
2023-05-06T01:29:43.630Z,1020.19
2023-05-06T01:29:53.023Z,1020.31
2023-05-06T01:30:02.426Z,1020.31
2023-05-06T01:30:11.801Z,1020.34
2023-05-06T01:30:21.190Z,1020.18
2023-05-06T01:30:40.011Z,1020.22
2023-05-06T01:30:49.488Z,1020.49
2023-05-06T01:30:58.863Z,1020.19
2023-05-06T01:31:08.308Z,1020.40
2023-05-06T01:31:17.748Z,1020.36
2023-05-06T01:31:27.129Z,1020.24
2023-05-06T01:31:45.919Z,1020.55
2023-05-06T01:31:55.364Z,1020.30
2023-05-06T01:32:04.731Z,1020.17
2023-05-06T01:32:14.137Z,1020.44
2023-05-06T01:32:23.570Z,1020.20
2023-05-06T01:32:33.035Z,1020.26
2023-05-06T01:32:51.853Z,1020.28
2023-05-06T01:33:01.295Z,1020.32
2023-05-06T01:33:10.604Z,1020.31
2023-05-06T01:33:20.022Z,1020.28
2023-05-06T01:33:29.429Z,1020.22
2023-05-06T01:33:38.804Z,1020.05
2023-05-06T01:33:57.639Z,1020.37
2023-05-06T01:34:07.008Z,1020.30
2023-05-06T01:34:16.393Z,1020.29
2023-05-06T01:34:25.810Z,1020.30
2023-05-06T01:34:35.160Z,1020.36
2023-05-06T01:34:44.556Z,1020.42
2023-05-06T01:35:03.369Z,1020.35
2023-05-06T01:35:12.784Z,1020.27
2023-05-06T01:35:22.194Z,1020.57
2023-05-06T01:35:31.613Z,1020.39
2023-05-06T01:35:40.999Z,1020.42
2023-05-06T01:35:50.400Z,1020.45
2023-05-06T01:36:09.226Z,1020.29
2023-05-06T01:36:18.645Z,1020.31
2023-05-06T01:36:28.034Z,1020.36
2023-05-06T01:36:37.448Z,1020.36
2023-05-06T01:36:46.895Z,1020.28
2023-05-06T01:36:56.353Z,1020.39
2023-05-06T01:37:15.106Z,1020.29
2023-05-06T01:37:24.524Z,1020.37
2023-05-06T01:37:33.905Z,1020.29
2023-05-06T01:37:43.309Z,1020.37
2023-05-06T01:37:52.714Z,1020.36
2023-05-06T01:38:02.088Z,1020.37
2023-05-06T01:38:20.924Z,1020.16
2023-05-06T01:38:30.323Z,1020.19
2023-05-06T01:38:39.724Z,1020.30
2023-05-06T01:38:49.134Z,1020.21
2023-05-06T01:38:58.555Z,1020.24
2023-05-06T01:39:07.930Z,1020.28
2023-05-06T01:39:26.787Z,1020.14
2023-05-06T01:39:36.180Z,1020.44
2023-05-06T01:39:45.587Z,1020.38
2023-05-06T01:39:55.005Z,1020.37
2023-05-06T01:40:04.450Z,1020.22
2023-05-06T01:40:13.888Z,1020.20
2023-05-06T01:40:32.702Z,1020.21
2023-05-06T01:40:42.128Z,1020.29
2023-05-06T01:40:51.562Z,1020.23
2023-05-06T01:41:00.986Z,1020.28
2023-05-06T01:41:10.367Z,1020.19
2023-05-06T01:41:19.773Z,1020.29
2023-05-06T01:41:38.607Z,1020.24
2023-05-06T01:41:47.996Z,1020.23
2023-05-06T01:41:57.391Z,1020.25
2023-05-06T01:42:06.792Z,1020.18
2023-05-06T01:42:16.187Z,1020.22
2023-05-06T01:42:25.597Z,1020.29
2023-05-06T01:42:44.413Z,1020.26
2023-05-06T01:42:53.799Z,1020.22
2023-05-06T01:43:03.202Z,1020.42
2023-05-06T01:43:12.587Z,1020.48
2023-05-06T01:43:21.991Z,1020.30
2023-05-06T01:43:31.426Z,1020.33
2023-05-06T01:43:50.237Z,1020.13
2023-05-06T01:43:59.627Z,1020.59
2023-05-06T01:44:09.037Z,1020.32
2023-05-06T01:44:18.459Z,1020.24
2023-05-06T01:44:27.853Z,1020.16
2023-05-06T01:44:37.251Z,1020.24
2023-05-06T01:44:56.042Z,1020.41
2023-05-06T01:45:05.447Z,1020.37
2023-05-06T01:45:14.836Z,1020.25
2023-05-06T01:45:24.227Z,1020.28
2023-05-06T01:45:33.644Z,1020.21
2023-05-06T01:45:43.023Z,1020.28
2023-05-06T01:46:01.844Z,1020.35
2023-05-06T01:46:11.326Z,1020.34
2023-05-06T01:46:20.646Z,1020.29
2023-05-06T01:46:30.070Z,1020.20
2023-05-06T01:46:39.468Z,1020.20
2023-05-06T01:46:48.880Z,1020.26
2023-05-06T01:47:07.675Z,1020.15
2023-05-06T01:47:17.087Z,1020.36
2023-05-06T01:47:26.532Z,1020.20
2023-05-06T01:47:35.907Z,1020.27
2023-05-06T01:47:45.304Z,1020.27
2023-05-06T01:47:54.835Z,1020.22
2023-05-06T01:48:13.480Z,1020.18
2023-05-06T01:48:22.857Z,1020.18
2023-05-06T01:48:32.266Z,1020.27
2023-05-06T01:48:41.651Z,1020.22
2023-05-06T01:48:51.066Z,1020.29
2023-05-06T01:49:00.485Z,1020.27
2023-05-06T01:49:19.263Z,1020.25
2023-05-06T01:49:28.683Z,1020.34
2023-05-06T01:49:38.091Z,1020.26
2023-05-06T01:49:47.473Z,1020.22
2023-05-06T01:49:56.870Z,1020.27
2023-05-06T01:50:06.253Z,1020.17
2023-05-06T01:50:25.046Z,1020.31
2023-05-06T01:50:34.444Z,1020.35
2023-05-06T01:50:43.826Z,1020.26
2023-05-06T01:50:53.208Z,1020.26
2023-05-06T01:51:02.633Z,1020.32
2023-05-06T01:51:12.824Z,1020.31
2023-05-06T01:51:31.651Z,1020.29
2023-05-06T01:51:41.046Z,1020.30
2023-05-06T01:51:50.443Z,1020.20
2023-05-06T01:51:59.861Z,1020.23
2023-05-06T01:52:09.283Z,1020.06
2023-05-06T01:52:18.692Z,1020.27
2023-05-06T01:52:37.481Z,1020.25
2023-05-06T01:52:46.876Z,1020.17
2023-05-06T01:52:56.288Z,1020.18
2023-05-06T01:53:05.716Z,1020.14
2023-05-06T01:53:15.092Z,1020.19
2023-05-06T01:53:24.492Z,1020.15
2023-05-06T01:53:43.360Z,1020.14
2023-05-06T01:53:52.762Z,1020.19
2023-05-06T01:54:02.175Z,1020.06
2023-05-06T01:54:11.561Z,1020.09
2023-05-06T01:54:21.132Z,1020.06
2023-05-06T01:54:30.330Z,1020.26
2023-05-06T01:54:49.158Z,1020.15
2023-05-06T01:54:58.554Z,1020.12
2023-05-06T01:55:08.352Z,1020.12
2023-05-06T01:55:17.399Z,1020.16
2023-05-06T01:55:26.820Z,1020.18
2023-05-06T01:55:36.216Z,1020.36
2023-05-06T01:55:54.991Z,1020.08
2023-05-06T01:56:04.417Z,1020.21
2023-05-06T01:56:13.827Z,1020.12
2023-05-06T01:56:23.243Z,1020.14
2023-05-06T01:56:32.617Z,1020.14
2023-05-06T01:56:42.002Z,1020.14
2023-05-06T01:57:00.821Z,1020.24
2023-05-06T01:57:10.197Z,1020.32
2023-05-06T01:57:19.619Z,1020.19
2023-05-06T01:57:29.108Z,1020.16
2023-05-06T01:57:38.527Z,1020.41
2023-05-06T01:57:47.916Z,1020.22
2023-05-06T01:58:06.728Z,1020.13
2023-05-06T01:58:16.124Z,1020.20
2023-05-06T01:58:25.527Z,1020.10
2023-05-06T01:58:35.603Z,1020.31
2023-05-06T01:58:44.994Z,1020.28
2023-05-06T01:58:54.424Z,1020.12
2023-05-06T01:59:13.213Z,1020.34
2023-05-06T01:59:22.620Z,1020.24
2023-05-06T01:59:32.012Z,1020.20
2023-05-06T01:59:41.443Z,1020.15
2023-05-06T01:59:50.841Z,1020.26
2023-05-06T02:00:00.260Z,1020.12
2023-05-06T02:00:19.022Z,1020.38
2023-05-06T02:00:28.449Z,1020.11
2023-05-06T02:00:37.837Z,1020.13
2023-05-06T02:00:47.245Z,1020.12
2023-05-06T02:00:56.636Z,1020.30
2023-05-06T02:01:06.043Z,1020.45
2023-05-06T02:01:25.180Z,1020.21
2023-05-06T02:01:34.550Z,1020.20
2023-05-06T02:01:43.938Z,1020.19
2023-05-06T02:01:53.343Z,1020.20
2023-05-06T02:02:02.791Z,1020.27
2023-05-06T02:02:12.110Z,1020.20
2023-05-06T02:02:31.018Z,1019.99
2023-05-06T02:02:40.493Z,1020.21
2023-05-06T02:02:50.047Z,1020.26
2023-05-06T02:02:59.506Z,1020.29
2023-05-06T02:03:08.891Z,1020.20
2023-05-06T02:03:18.270Z,1020.09
2023-05-06T02:03:42.740Z,1020.19
2023-05-06T02:03:52.312Z,1020.06
2023-05-06T02:04:01.712Z,1020.38
2023-05-06T02:04:10.920Z,1020.41
2023-05-06T02:04:20.302Z,1020.15
2023-05-06T02:04:29.722Z,1020.13
2023-05-06T02:04:48.521Z,1020.27
2023-05-06T02:04:57.905Z,1020.05
2023-05-06T02:05:07.542Z,1020.31
2023-05-06T02:05:16.697Z,1020.16
2023-05-06T02:05:26.094Z,1020.33
2023-05-06T02:05:35.484Z,1020.35
2023-05-06T02:05:54.277Z,1020.33
2023-05-06T02:06:03.683Z,1020.32
2023-05-06T02:06:13.078Z,1020.39
2023-05-06T02:06:22.486Z,1020.12
2023-05-06T02:06:31.897Z,1020.14
2023-05-06T02:06:41.305Z,1020.17
2023-05-06T02:07:00.079Z,1020.16
2023-05-06T02:07:09.484Z,1020.23
2023-05-06T02:07:18.876Z,1020.13
2023-05-06T02:07:28.252Z,1020.38
2023-05-06T02:07:37.723Z,1020.02
2023-05-06T02:07:47.126Z,1020.25
2023-05-06T02:08:05.964Z,1020.20
2023-05-06T02:08:15.344Z,1020.20
2023-05-06T02:08:24.725Z,1020.13
2023-05-06T02:08:34.103Z,1020.21
2023-05-06T02:08:43.501Z,1020.24
2023-05-06T02:08:52.882Z,1020.26
2023-05-06T02:09:11.739Z,1020.38
2023-05-06T02:09:21.153Z,1020.27
2023-05-06T02:09:30.774Z,1020.08
2023-05-06T02:09:39.935Z,1020.19
2023-05-06T02:09:49.347Z,1020.18
2023-05-06T02:09:58.740Z,1020.29
2023-05-06T02:10:17.566Z,1020.27
2023-05-06T02:10:27.035Z,1020.08
2023-05-06T02:10:36.418Z,1020.12
2023-05-06T02:10:45.843Z,1020.09
2023-05-06T02:10:55.246Z,1020.09
2023-05-06T02:11:04.646Z,1020.09
2023-05-06T02:11:23.449Z,1020.02
2023-05-06T02:11:32.832Z,1020.03
2023-05-06T02:11:42.230Z,1020.04
2023-05-06T02:11:51.652Z,1020.18
2023-05-06T02:12:01.062Z,1020.12
2023-05-06T02:12:10.463Z,1020.18
2023-05-06T02:12:29.248Z,1020.10
2023-05-06T02:12:38.700Z,1020.20
2023-05-06T02:12:48.118Z,1020.14